createdAt,value
2019-01-23T00:00:05.799Z,38.90
2019-01-23T00:01:05.765Z,40.10
2019-01-23T00:02:05.743Z,40.20
2019-01-23T00:03:05.744Z,40.20
2019-01-23T00:04:05.696Z,40.40
2019-01-23T00:05:05.663Z,40.70
2019-01-23T00:06:05.646Z,40.10
2019-01-23T00:07:05.623Z,39.70
2019-01-23T00:08:05.598Z,39.30
2019-01-23T00:09:05.627Z,38.30
2019-01-23T00:10:05.547Z,38.90
2019-01-23T00:11:05.514Z,39.90
2019-01-23T00:12:05.489Z,37.60
2019-01-23T00:13:06.263Z,38.00
2019-01-23T00:14:06.282Z,38.30
2019-01-23T00:15:05.421Z,37.70
2019-01-23T00:16:05.498Z,38.80
2019-01-23T00:17:05.370Z,39.30
2019-01-23T00:18:05.435Z,38.10
2019-01-23T00:19:05.350Z,38.40
2019-01-23T00:20:05.355Z,39.10
2019-01-23T00:21:05.268Z,38.50
2019-01-23T00:22:05.244Z,38.30
2019-01-23T00:23:05.255Z,38.60
2019-01-23T00:24:05.194Z,37.60
2019-01-23T00:25:05.167Z,38.20
2019-01-23T00:26:05.162Z,39.20
2019-01-23T00:27:05.117Z,39.80
2019-01-23T00:28:05.774Z,39.40
2019-01-23T00:29:05.065Z,39.00
2019-01-23T00:30:05.052Z,40.70
2019-01-23T00:31:05.045Z,40.50
2019-01-23T00:32:04.997Z,40.00
2019-01-23T00:33:04.971Z,40.00
2019-01-23T00:34:04.942Z,39.80
2019-01-23T00:35:04.923Z,40.90
2019-01-23T00:36:04.906Z,41.80
2019-01-23T00:37:04.890Z,41.30
2019-01-23T00:38:04.859Z,41.50
2019-01-23T00:39:04.822Z,40.90
2019-01-23T00:40:04.803Z,41.70
2019-01-23T00:41:04.773Z,41.10
2019-01-23T00:42:04.787Z,40.40
2019-01-23T00:43:05.355Z,41.70
2019-01-23T00:44:04.697Z,41.20
2019-01-23T00:45:04.697Z,41.90
2019-01-23T00:46:04.668Z,42.00
2019-01-23T00:47:04.624Z,42.50
2019-01-23T00:48:04.626Z,42.20
2019-01-23T00:49:04.576Z,43.20
2019-01-23T00:50:04.552Z,42.30
2019-01-23T00:51:04.527Z,42.60
2019-01-23T00:52:04.501Z,42.40
2019-01-23T00:53:04.484Z,43.80
2019-01-23T00:54:04.475Z,42.40
2019-01-23T00:55:04.428Z,43.30
2019-01-23T00:56:04.402Z,43.80
2019-01-23T00:57:04.381Z,42.80
2019-01-23T00:58:04.385Z,42.50
2019-01-23T00:59:04.330Z,42.80
2019-01-23T01:00:04.303Z,43.30
2019-01-23T01:01:04.281Z,43.60
2019-01-23T01:02:04.260Z,42.90
2019-01-23T01:03:04.236Z,41.90
2019-01-23T01:04:04.236Z,43.10
2019-01-23T01:05:04.193Z,42.10
2019-01-23T01:06:04.170Z,42.40
2019-01-23T01:07:04.136Z,41.60
2019-01-23T01:08:04.107Z,42.60
2019-01-23T01:09:04.093Z,42.10
2019-01-23T01:10:04.077Z,42.70
2019-01-23T01:11:04.034Z,42.70
2019-01-23T01:12:04.012Z,42.50
2019-01-23T01:13:03.987Z,41.70
2019-01-23T01:14:03.965Z,41.90
2019-01-23T01:15:03.934Z,41.80
2019-01-23T01:16:03.932Z,41.70
2019-01-23T01:17:03.889Z,41.00
2019-01-23T01:18:03.866Z,42.00
2019-01-23T01:19:03.854Z,42.60
2019-01-23T01:20:03.811Z,41.40
2019-01-23T01:21:03.813Z,42.30
2019-01-23T01:22:03.769Z,42.70
2019-01-23T01:23:03.746Z,42.70
2019-01-23T01:24:03.716Z,42.00
2019-01-23T01:25:03.693Z,42.00
2019-01-23T01:26:03.670Z,42.10
2019-01-23T01:27:03.662Z,41.90
2019-01-23T01:28:03.621Z,42.20
2019-01-23T01:29:03.594Z,41.10
2019-01-23T01:30:03.569Z,41.70
2019-01-23T01:31:03.543Z,42.50
2019-01-23T01:32:03.535Z,41.80
2019-01-23T01:33:03.493Z,42.80
2019-01-23T01:34:03.472Z,43.00
2019-01-23T01:35:03.447Z,42.70
2019-01-23T01:36:03.494Z,41.50
2019-01-23T01:37:03.417Z,43.50
2019-01-23T01:38:03.390Z,41.30
2019-01-23T01:39:03.348Z,42.00
2019-01-23T01:40:03.324Z,42.60
2019-01-23T01:41:03.296Z,41.60
2019-01-23T01:42:03.275Z,41.60
2019-01-23T01:43:03.264Z,41.30
2019-01-23T01:44:03.238Z,42.40
2019-01-23T01:45:03.198Z,41.80
2019-01-23T01:46:03.177Z,41.60
2019-01-23T01:47:03.153Z,41.90
2019-01-23T01:48:03.133Z,41.70
2019-01-23T01:49:03.119Z,41.10
2019-01-23T01:50:03.083Z,41.70
2019-01-23T01:51:03.074Z,41.00
2019-01-23T01:52:03.028Z,41.10
2019-01-23T01:53:03.004Z,41.10
2019-01-23T01:54:02.994Z,42.30
2019-01-23T01:55:03.766Z,41.90
2019-01-23T01:56:02.930Z,42.10
2019-01-23T01:57:02.911Z,41.80
2019-01-23T01:58:02.900Z,41.80
2019-01-23T01:59:03.064Z,40.70
2019-01-23T02:00:02.841Z,41.70
2019-01-23T02:01:02.836Z,42.00
2019-01-23T02:02:02.787Z,42.40
2019-01-23T02:03:02.767Z,41.60
2019-01-23T02:04:02.731Z,42.40
2019-01-23T02:05:02.723Z,40.90
2019-01-23T02:06:03.310Z,40.90
2019-01-23T02:07:02.660Z,41.10
2019-01-23T02:08:02.648Z,42.10
2019-01-23T02:09:02.650Z,41.00
2019-01-23T02:10:02.595Z,41.00
2019-01-23T02:11:02.563Z,41.30
2019-01-23T02:12:02.536Z,41.20
2019-01-23T02:13:02.510Z,42.10
2019-01-23T02:14:02.525Z,40.90
2019-01-23T02:15:02.466Z,41.70
2019-01-23T02:16:04.266Z,40.00
2019-01-23T02:17:02.416Z,41.10
2019-01-23T02:18:02.389Z,41.30
2019-01-23T02:19:02.387Z,41.30
2019-01-23T02:20:02.359Z,41.40
2019-01-23T02:21:02.335Z,40.30
2019-01-23T02:22:02.293Z,40.50
2019-01-23T02:23:02.267Z,41.30
2019-01-23T02:24:02.243Z,40.20
2019-01-23T02:25:02.219Z,40.70
2019-01-23T02:26:02.212Z,41.20
2019-01-23T02:27:02.170Z,39.80
2019-01-23T02:28:02.144Z,40.80
2019-01-23T02:29:02.121Z,40.80
2019-01-23T02:30:02.154Z,40.90
2019-01-23T02:31:02.073Z,39.90
2019-01-23T02:32:02.074Z,40.40
2019-01-23T02:33:02.020Z,41.30
2019-01-23T02:34:01.999Z,41.10
2019-01-23T02:35:01.975Z,40.10
2019-01-23T02:36:01.950Z,40.60
2019-01-23T02:37:01.945Z,40.60
2019-01-23T02:38:01.901Z,41.10
2019-01-23T02:39:01.872Z,40.50
2019-01-23T02:40:01.855Z,39.10
2019-01-23T02:41:01.821Z,40.60
2019-01-23T02:42:01.797Z,41.30
2019-01-23T02:43:01.811Z,40.40
2019-01-23T02:44:01.753Z,40.20
2019-01-23T02:45:01.728Z,40.30
2019-01-23T02:46:01.705Z,40.10
2019-01-23T02:47:01.674Z,41.00
2019-01-23T02:48:01.651Z,40.00
2019-01-23T02:49:01.651Z,40.80
2019-01-23T02:50:01.604Z,39.50
2019-01-23T02:51:01.588Z,40.20
2019-01-23T02:52:01.564Z,39.60
2019-01-23T02:53:01.527Z,39.90
2019-01-23T02:54:01.524Z,40.00
2019-01-23T02:55:01.480Z,39.40
2019-01-23T02:56:01.455Z,38.20
2019-01-23T02:57:01.434Z,40.20
2019-01-23T02:58:01.411Z,41.10
2019-01-23T02:59:01.403Z,38.60
2019-01-23T03:00:01.356Z,40.30
2019-01-23T03:01:01.335Z,38.80
2019-01-23T03:02:01.307Z,40.20
2019-01-23T03:03:01.284Z,38.80
2019-01-23T03:04:01.261Z,39.00
2019-01-23T03:05:01.254Z,39.60
2019-01-23T03:06:01.228Z,39.10
2019-01-23T03:07:01.192Z,38.10
2019-01-23T03:08:01.161Z,38.90
2019-01-23T03:09:01.135Z,39.20
2019-01-23T03:10:01.112Z,38.90
2019-01-23T03:11:01.121Z,38.10
2019-01-23T03:12:01.066Z,38.40
2019-01-23T03:13:01.042Z,38.50
2019-01-23T03:14:01.020Z,38.40
2019-01-23T03:15:00.988Z,38.20
2019-01-23T03:16:00.965Z,38.20
2019-01-23T03:17:00.956Z,37.30
2019-01-23T03:18:00.922Z,37.30
2019-01-23T03:19:00.893Z,38.30
2019-01-23T03:20:00.868Z,38.20
2019-01-23T03:21:00.844Z,36.70
2019-01-23T03:22:00.836Z,36.50
2019-01-23T03:23:00.797Z,37.40
2019-01-23T03:24:00.769Z,36.60
2019-01-23T03:25:01.783Z,37.10
2019-01-23T03:26:01.288Z,36.70
2019-01-23T03:27:00.694Z,36.80
2019-01-23T03:28:00.683Z,36.60
2019-01-23T03:29:00.663Z,37.40
2019-01-23T03:30:00.623Z,36.20
2019-01-23T03:31:00.621Z,36.00
2019-01-23T03:32:01.312Z,37.20
2019-01-23T03:33:00.550Z,37.30
2019-01-23T03:34:00.522Z,36.20
2019-01-23T03:35:00.500Z,36.20
2019-01-23T03:36:00.480Z,35.30
2019-01-23T03:37:01.301Z,36.60
2019-01-23T03:38:00.427Z,36.00
2019-01-23T03:39:00.411Z,34.50
2019-01-23T03:40:00.378Z,36.30
2019-01-23T03:41:00.354Z,35.50
2019-01-23T03:42:00.358Z,36.50
2019-01-23T03:43:00.303Z,36.20
2019-01-23T03:44:00.275Z,36.00
2019-01-23T03:45:00.332Z,35.20
2019-01-23T03:46:00.247Z,34.40
2019-01-23T03:47:00.215Z,34.40
2019-01-23T03:48:00.208Z,35.10
2019-01-23T03:49:00.152Z,35.30
2019-01-23T03:50:00.170Z,35.40
2019-01-23T03:51:00.123Z,35.60
2019-01-23T03:52:00.078Z,34.60
2019-01-23T03:53:00.056Z,34.80
2019-01-23T03:54:00.054Z,34.40
2019-01-23T03:55:00.012Z,35.70
2019-01-23T03:55:59.981Z,34.40
2019-01-23T03:56:59.962Z,35.10
2019-01-23T03:57:59.955Z,36.00
2019-01-23T03:58:59.930Z,35.40
2019-01-23T03:59:59.888Z,35.90
2019-01-23T04:00:59.864Z,34.30
2019-01-23T04:01:59.839Z,35.30
2019-01-23T04:02:59.817Z,35.90
2019-01-23T04:04:00.288Z,35.20
2019-01-23T04:04:59.784Z,35.10
2019-01-23T04:05:59.756Z,34.70
2019-01-23T04:06:59.711Z,35.30
2019-01-23T04:07:59.690Z,35.80
2019-01-23T04:08:59.677Z,34.70
2019-01-23T04:10:01.326Z,35.20
2019-01-23T04:10:59.633Z,35.30
2019-01-23T04:11:59.591Z,34.60
2019-01-23T04:12:59.566Z,34.20
2019-01-23T04:13:59.545Z,35.40
2019-01-23T04:14:59.516Z,33.50
2019-01-23T04:15:59.526Z,34.60
2019-01-23T04:16:59.473Z,34.70
2019-01-23T04:17:59.445Z,34.50
2019-01-23T04:18:59.420Z,34.30
2019-01-23T04:19:59.396Z,35.40
2019-01-23T04:20:59.371Z,35.40
2019-01-23T04:21:59.364Z,34.50
2019-01-23T04:22:59.324Z,33.60
2019-01-23T04:23:59.300Z,34.80
2019-01-23T04:24:59.273Z,34.50
2019-01-23T04:25:59.249Z,34.50
2019-01-23T04:26:59.240Z,34.60
2019-01-23T04:27:59.213Z,34.20
2019-01-23T04:28:59.206Z,34.20
2019-01-23T04:29:59.152Z,33.90
2019-01-23T04:30:59.143Z,34.90
2019-01-23T04:31:59.104Z,34.20
2019-01-23T04:32:59.078Z,34.70
2019-01-23T04:33:59.057Z,33.10
2019-01-23T04:34:59.047Z,33.10
2019-01-23T04:35:59.002Z,34.60
2019-01-23T04:36:58.982Z,34.00
2019-01-23T04:37:58.964Z,33.50
2019-01-23T04:38:58.953Z,34.00
2019-01-23T04:39:58.925Z,33.40
2019-01-23T04:40:58.911Z,33.20
2019-01-23T04:41:58.868Z,33.90
2019-01-23T04:42:58.835Z,33.10
2019-01-23T04:43:58.809Z,33.60
2019-01-23T04:44:58.789Z,33.60
2019-01-23T04:45:58.782Z,32.90
2019-01-23T04:46:58.762Z,33.10
2019-01-23T04:47:58.718Z,32.60
2019-01-23T04:48:58.690Z,33.70
2019-01-23T04:49:58.662Z,33.50
2019-01-23T04:50:58.641Z,33.70
2019-01-23T04:51:58.618Z,33.10
2019-01-23T04:52:58.605Z,32.60
2019-01-23T04:53:58.569Z,33.40
2019-01-23T04:54:59.273Z,32.70
2019-01-23T04:55:58.532Z,33.00
2019-01-23T04:56:58.509Z,32.60
2019-01-23T04:57:58.477Z,33.50
2019-01-23T04:58:58.446Z,33.60
2019-01-23T04:59:58.423Z,33.10
2019-01-23T05:00:58.392Z,32.50
2019-01-23T05:01:58.387Z,32.80
2019-01-23T05:02:58.344Z,32.50
2019-01-23T05:03:58.334Z,32.80
2019-01-23T05:04:58.297Z,31.90
2019-01-23T05:05:58.268Z,31.90
2019-01-23T05:06:58.244Z,32.00
2019-01-23T05:07:58.227Z,32.20
2019-01-23T05:08:58.196Z,32.10
2019-01-23T05:09:58.190Z,32.00
2019-01-23T05:10:58.165Z,32.00
2019-01-23T05:11:58.122Z,33.20
2019-01-23T05:12:58.102Z,32.20
2019-01-23T05:13:58.074Z,32.60
2019-01-23T05:14:58.050Z,33.30
2019-01-23T05:15:58.050Z,32.60
2019-01-23T05:16:58.048Z,32.40
2019-01-23T05:17:57.977Z,33.30
2019-01-23T05:18:57.949Z,32.50
2019-01-23T05:19:57.928Z,32.00
2019-01-23T05:20:57.904Z,33.40
2019-01-23T05:21:57.896Z,32.30
2019-01-23T05:22:57.879Z,32.40
2019-01-23T05:23:57.830Z,32.20
2019-01-23T05:24:57.807Z,32.90
2019-01-23T05:25:57.796Z,32.50
2019-01-23T05:26:57.774Z,33.00
2019-01-23T05:27:57.732Z,33.50
2019-01-23T05:28:57.727Z,33.30
2019-01-23T05:29:57.682Z,33.40
2019-01-23T05:30:57.660Z,33.10
2019-01-23T05:31:57.634Z,33.20
2019-01-23T05:32:57.614Z,33.20
2019-01-23T05:33:57.604Z,34.20
2019-01-23T05:34:57.568Z,34.50
2019-01-23T05:35:57.548Z,34.20
2019-01-23T05:36:57.513Z,34.80
2019-01-23T05:37:57.510Z,34.30
2019-01-23T05:38:57.462Z,33.50
2019-01-23T05:39:57.439Z,33.10
2019-01-23T05:40:57.415Z,34.20
2019-01-23T05:41:57.388Z,34.50
2019-01-23T05:42:57.384Z,33.60
2019-01-23T05:43:57.339Z,33.90
2019-01-23T05:44:57.316Z,33.50
2019-01-23T05:45:57.290Z,34.30
2019-01-23T05:46:57.271Z,34.40
2019-01-23T05:47:57.240Z,34.20
2019-01-23T05:48:57.815Z,34.80
2019-01-23T05:49:57.192Z,34.10
2019-01-23T05:50:57.176Z,33.70
2019-01-23T05:51:57.142Z,33.50
2019-01-23T05:52:57.119Z,35.50
2019-01-23T05:53:57.112Z,34.20
2019-01-23T05:54:57.075Z,34.20
2019-01-23T05:55:57.795Z,34.80
2019-01-23T05:56:57.017Z,35.10
2019-01-23T05:57:56.992Z,34.60
2019-01-23T05:58:56.998Z,34.90
2019-01-23T06:00:02.281Z,34.50
2019-01-23T06:00:56.995Z,34.80
2019-01-23T06:01:56.897Z,34.50
2019-01-23T06:02:56.875Z,33.80
2019-01-23T06:03:58.775Z,34.30
2019-01-23T06:04:56.853Z,34.70
2019-01-23T06:05:56.796Z,34.70
2019-01-23T06:06:56.775Z,34.40
2019-01-23T06:07:56.746Z,35.10
2019-01-23T06:08:56.721Z,34.20
2019-01-23T06:09:56.724Z,34.60
2019-01-23T06:10:56.675Z,35.30
2019-01-23T06:11:56.669Z,34.80
2019-01-23T06:12:56.629Z,34.40
2019-01-23T06:13:56.602Z,33.70
2019-01-23T06:14:56.582Z,33.60
2019-01-23T06:15:56.571Z,34.30
2019-01-23T06:16:56.530Z,33.70
2019-01-23T06:17:56.518Z,34.90
2019-01-23T06:18:56.481Z,34.90
2019-01-23T06:19:56.457Z,35.00
2019-01-23T06:20:56.450Z,34.70
2019-01-23T06:21:56.410Z,34.40
2019-01-23T06:22:56.386Z,35.10
2019-01-23T06:23:56.359Z,34.00
2019-01-23T06:24:56.334Z,34.50
2019-01-23T06:25:56.304Z,34.80
2019-01-23T06:26:56.304Z,36.00
2019-01-23T06:27:56.264Z,34.60
2019-01-23T06:30:50.284Z,35.10
2019-01-23T06:31:50.222Z,34.70
2019-01-23T06:32:50.193Z,35.70
2019-01-23T06:33:50.183Z,36.50
2019-01-23T06:34:50.146Z,34.80
2019-01-23T06:35:50.125Z,34.80
2019-01-23T06:36:50.121Z,35.50
2019-01-23T06:37:50.072Z,35.50
2019-01-23T06:38:50.049Z,35.50
2019-01-23T06:39:50.021Z,35.40
2019-01-23T06:40:49.994Z,35.00
2019-01-23T06:41:49.974Z,35.20
2019-01-23T06:42:49.970Z,35.80
2019-01-23T06:43:49.977Z,35.20
2019-01-23T06:44:49.903Z,35.30
2019-01-23T06:45:50.854Z,35.40
2019-01-23T06:46:49.908Z,35.10
2019-01-23T06:47:49.829Z,34.70
2019-01-23T06:48:49.943Z,35.60
2019-01-23T06:49:49.950Z,34.80
2019-01-23T06:50:49.873Z,34.90
2019-01-23T06:51:49.734Z,35.40
2019-01-23T06:52:49.719Z,33.90
2019-01-23T06:53:49.675Z,35.00
2019-01-23T06:54:49.649Z,35.50
2019-01-23T06:55:49.656Z,34.90
2019-01-23T06:56:49.602Z,36.00
2019-01-23T06:57:49.582Z,34.20
2019-01-23T06:58:49.552Z,35.30
2019-01-23T06:59:49.532Z,34.60
2019-01-23T07:00:49.506Z,35.40
2019-01-23T07:01:49.502Z,36.30
2019-01-23T07:02:49.461Z,35.40
2019-01-23T07:03:49.431Z,35.10
2019-01-23T07:04:49.418Z,35.10
2019-01-23T07:05:49.379Z,35.90
2019-01-23T07:06:49.365Z,35.50
2019-01-23T07:07:49.356Z,35.80
2019-01-23T07:08:49.328Z,36.40
2019-01-23T07:09:49.289Z,35.90
2019-01-23T07:10:49.257Z,35.30
2019-01-23T07:11:49.235Z,35.20
2019-01-23T07:12:49.205Z,34.00
2019-01-23T07:13:49.206Z,35.40
2019-01-23T07:14:49.179Z,34.70
2019-01-23T07:15:49.145Z,34.50
2019-01-23T07:16:49.108Z,34.90
2019-01-23T07:17:49.092Z,34.00
2019-01-23T07:18:49.063Z,34.10
2019-01-23T07:19:49.040Z,34.30
2019-01-23T07:20:49.043Z,35.10
2019-01-23T07:21:48.995Z,34.90
2019-01-23T07:22:48.965Z,35.00
2019-01-23T07:23:48.939Z,35.30
2019-01-23T07:24:48.918Z,35.60
2019-01-23T07:25:48.894Z,36.20
2019-01-23T07:26:48.884Z,35.40
2019-01-23T07:27:48.841Z,35.40
2019-01-23T07:28:49.260Z,35.90
2019-01-23T07:29:48.790Z,35.70
2019-01-23T07:30:48.788Z,36.30
2019-01-23T07:31:48.747Z,37.40
2019-01-23T07:32:48.743Z,36.90
2019-01-23T07:33:48.699Z,36.60
2019-01-23T07:34:48.672Z,36.80
2019-01-23T07:35:48.649Z,35.10
2019-01-23T07:36:48.639Z,36.70
2019-01-23T07:37:48.600Z,35.70
2019-01-23T07:38:48.591Z,36.10
2019-01-23T07:39:48.547Z,36.10
2019-01-23T07:40:48.525Z,35.80
2019-01-23T07:41:48.554Z,35.90
2019-01-23T07:42:48.499Z,35.40
2019-01-23T07:43:48.456Z,36.90
2019-01-23T07:44:48.428Z,35.90
2019-01-23T07:45:48.401Z,36.70
2019-01-23T07:46:48.394Z,36.50
2019-01-23T07:47:48.354Z,36.60
2019-01-23T07:48:48.350Z,36.60
2019-01-23T07:49:48.307Z,36.30
2019-01-23T07:50:48.280Z,38.00
2019-01-23T07:51:48.262Z,37.00
2019-01-23T07:52:48.246Z,37.20
2019-01-23T07:53:48.232Z,37.50
2019-01-23T07:54:48.193Z,37.60
2019-01-23T07:55:48.178Z,37.00
2019-01-23T07:56:48.142Z,37.20
2019-01-23T07:57:48.107Z,36.80
2019-01-23T07:58:48.093Z,37.90
2019-01-23T07:59:48.066Z,37.70
2019-01-23T08:00:48.072Z,36.90
2019-01-23T08:01:48.014Z,37.70
2019-01-23T08:02:47.999Z,37.80
2019-01-23T08:03:47.968Z,38.00
2019-01-23T08:04:47.943Z,38.40
2019-01-23T08:05:47.916Z,37.70
2019-01-23T08:06:47.913Z,37.20
2019-01-23T08:07:47.870Z,37.30
2019-01-23T08:08:47.845Z,38.30
2019-01-23T08:09:47.822Z,36.70
2019-01-23T08:10:47.813Z,37.50
2019-01-23T08:11:47.790Z,37.30
2019-01-23T08:12:47.760Z,37.50
2019-01-23T08:13:47.763Z,38.10
2019-01-23T08:14:47.702Z,37.30
2019-01-23T08:15:47.677Z,37.70
2019-01-23T08:16:47.670Z,38.00
2019-01-23T08:17:47.626Z,37.80
2019-01-23T08:18:47.606Z,37.60
2019-01-23T08:19:47.585Z,38.70
2019-01-23T08:20:47.555Z,38.60
2019-01-23T08:21:47.533Z,38.50
2019-01-23T08:22:47.521Z,38.10
2019-01-23T08:23:47.481Z,38.30
2019-01-23T08:24:47.480Z,37.80
2019-01-23T08:25:47.430Z,37.90
2019-01-23T08:26:47.413Z,38.30
2019-01-23T08:27:47.403Z,37.50
2019-01-23T08:28:47.379Z,37.70
2019-01-23T08:29:47.347Z,37.90
2019-01-23T08:30:47.311Z,37.30
2019-01-23T08:31:47.296Z,37.20
2019-01-23T08:32:47.266Z,36.60
2019-01-23T08:33:47.273Z,38.00
2019-01-23T08:34:47.216Z,36.30
2019-01-23T08:37:29.250Z,37.40
2019-01-23T08:38:29.222Z,36.40
2019-01-23T08:39:29.227Z,37.50
2019-01-23T08:40:29.175Z,36.90
2019-01-23T08:41:29.155Z,37.50
2019-01-23T08:42:29.138Z,37.50
2019-01-23T08:43:29.111Z,36.70
2019-01-23T08:44:29.077Z,36.90
2019-01-23T08:45:29.072Z,36.60
2019-01-23T08:46:29.036Z,36.60
2019-01-23T08:47:29.011Z,36.60
2019-01-23T08:48:28.993Z,35.90
2019-01-23T08:49:28.959Z,38.10
2019-01-23T08:50:28.954Z,37.20
2019-01-23T08:51:28.931Z,37.10
2019-01-23T08:52:28.891Z,37.20
2019-01-23T08:53:28.874Z,36.80
2019-01-23T08:54:28.846Z,37.30
2019-01-23T08:55:28.823Z,37.50
2019-01-23T08:56:28.813Z,37.10
2019-01-23T08:57:28.775Z,35.60
2019-01-23T08:58:28.746Z,36.60
2019-01-23T08:59:28.732Z,36.50
2019-01-23T09:00:28.699Z,36.40
2019-01-23T09:01:28.707Z,36.40
2019-01-23T09:02:28.651Z,36.90
2019-01-23T09:03:28.624Z,35.90
2019-01-23T09:04:28.605Z,35.50
2019-01-23T09:05:28.579Z,35.60
2019-01-23T09:06:28.554Z,35.10
2019-01-23T09:07:28.551Z,35.50
2019-01-23T09:08:28.517Z,35.70
2019-01-23T09:09:28.481Z,36.20
2019-01-23T09:10:28.461Z,36.00
2019-01-23T09:11:28.433Z,35.40
2019-01-23T09:12:28.430Z,35.60
2019-01-23T09:13:28.405Z,36.90
2019-01-23T09:14:28.361Z,34.40
2019-01-23T09:15:28.341Z,35.30
2019-01-23T09:16:28.311Z,36.30
2019-01-23T09:17:28.296Z,34.70
2019-01-23T09:18:28.266Z,35.10
2019-01-23T09:19:28.268Z,35.10
2019-01-23T09:20:28.221Z,35.80
2019-01-23T09:21:28.192Z,34.90
2019-01-23T09:22:28.169Z,34.10
2019-01-23T09:23:28.144Z,34.70
2019-01-23T09:24:28.124Z,33.80
2019-01-23T09:25:28.123Z,34.80
2019-01-23T09:26:28.075Z,33.10
2019-01-23T09:27:28.059Z,35.30
2019-01-23T09:28:28.035Z,33.40
2019-01-23T09:29:28.005Z,33.80
2019-01-23T09:30:28.004Z,34.30
2019-01-23T09:31:27.951Z,33.80
2019-01-23T09:32:27.934Z,33.40
2019-01-23T09:33:27.921Z,32.80
2019-01-23T09:34:27.888Z,33.30
2019-01-23T09:35:27.863Z,33.50
2019-01-23T09:36:27.865Z,32.90
2019-01-23T09:37:27.817Z,33.10
2019-01-23T09:38:27.792Z,32.60
2019-01-23T09:39:27.775Z,33.10
2019-01-23T09:40:27.743Z,33.40
2019-01-23T09:41:27.742Z,33.40
2019-01-23T09:42:27.694Z,33.60
2019-01-23T09:43:27.678Z,32.50
2019-01-23T09:44:27.660Z,33.50
2019-01-23T09:45:27.628Z,33.00
2019-01-23T09:46:27.622Z,32.60
2019-01-23T09:47:27.578Z,33.10
2019-01-23T09:48:27.557Z,33.30
2019-01-23T09:49:27.554Z,33.20
2019-01-23T09:50:27.506Z,33.80
2019-01-23T09:51:27.486Z,33.30
2019-01-23T09:52:27.466Z,33.60
2019-01-23T09:53:27.445Z,33.40
2019-01-23T09:54:27.409Z,33.00
2019-01-23T09:55:27.411Z,33.60
2019-01-23T09:56:27.376Z,33.50
2019-01-23T09:57:27.343Z,32.10
2019-01-23T09:58:27.319Z,34.50
2019-01-23T09:59:27.294Z,33.30
2019-01-23T10:00:27.271Z,33.60
2019-01-23T10:01:27.278Z,33.00
2019-01-23T10:02:27.231Z,33.80
2019-01-23T10:03:27.208Z,33.10
2019-01-23T10:04:27.182Z,33.50
2019-01-23T10:05:27.149Z,33.20
2019-01-23T10:06:27.138Z,32.90
2019-01-23T10:07:27.125Z,33.20
2019-01-23T10:08:27.094Z,33.80
2019-01-23T10:09:27.056Z,33.40
2019-01-23T10:10:27.038Z,32.90
2019-01-23T10:11:27.014Z,33.70
2019-01-23T10:12:27.006Z,33.40
2019-01-23T10:13:26.978Z,34.10
2019-01-23T10:14:26.936Z,31.50
2019-01-23T10:15:26.915Z,33.00
2019-01-23T10:16:26.897Z,32.60
2019-01-23T10:17:26.899Z,33.50
2019-01-23T10:18:26.854Z,32.70
2019-01-23T10:19:26.824Z,32.00
2019-01-23T10:20:26.796Z,32.80
2019-01-23T10:21:26.777Z,32.80
2019-01-23T10:22:26.752Z,33.10
2019-01-23T10:23:26.742Z,32.70
2019-01-23T10:24:26.724Z,33.40
2019-01-23T10:25:26.684Z,32.80
2019-01-23T10:26:26.658Z,33.30
2019-01-23T10:27:26.634Z,33.00
2019-01-23T10:28:26.893Z,32.50
2019-01-23T10:29:26.606Z,31.70
2019-01-23T10:30:26.592Z,33.10
2019-01-23T10:31:26.543Z,32.90
2019-01-23T10:32:26.516Z,33.40
2019-01-23T10:33:26.499Z,34.00
2019-01-23T10:34:26.482Z,33.70
2019-01-23T10:35:26.450Z,33.40
2019-01-23T10:36:26.442Z,33.10
2019-01-23T10:37:26.395Z,33.00
2019-01-23T10:38:26.379Z,32.90
2019-01-23T10:39:26.369Z,32.40
2019-01-23T10:40:26.344Z,32.70
2019-01-23T10:41:26.313Z,33.00
2019-01-23T10:42:26.297Z,32.90
2019-01-23T10:43:26.259Z,33.20
2019-01-23T10:44:26.235Z,33.10
2019-01-23T10:45:26.210Z,32.00
2019-01-23T10:46:26.216Z,32.60
2019-01-23T10:47:26.174Z,32.70
2019-01-23T10:48:26.137Z,32.80
2019-01-23T10:49:26.115Z,32.60
2019-01-23T10:50:26.090Z,31.30
2019-01-23T10:51:26.097Z,32.20
2019-01-23T10:52:26.045Z,32.70
2019-01-23T10:53:26.018Z,32.70
2019-01-23T10:54:25.997Z,32.70
2019-01-23T10:55:25.977Z,32.20
2019-01-23T10:56:25.960Z,31.50
2019-01-23T10:57:25.944Z,32.10
2019-01-23T10:58:25.903Z,31.80
2019-01-23T10:59:25.883Z,31.90
2019-01-23T11:00:25.859Z,32.50
2019-01-23T11:01:26.098Z,32.10
2019-01-23T11:02:25.828Z,32.50
2019-01-23T11:03:25.782Z,31.80
2019-01-23T11:04:25.785Z,31.50
2019-01-23T11:05:25.737Z,31.60
2019-01-23T11:06:25.712Z,31.60
2019-01-23T11:07:25.722Z,31.40
2019-01-23T11:08:25.683Z,32.70
2019-01-23T11:09:25.715Z,31.90
2019-01-23T11:10:25.618Z,31.20
2019-01-23T11:11:25.594Z,31.70
2019-01-23T11:12:25.573Z,32.30
2019-01-23T11:13:25.571Z,31.80
2019-01-23T11:14:25.526Z,31.80
2019-01-23T11:15:25.501Z,30.60
2019-01-23T11:16:25.487Z,30.50
2019-01-23T11:17:25.462Z,29.80
2019-01-23T11:18:25.451Z,30.40
2019-01-23T11:19:25.483Z,30.70
2019-01-23T11:20:25.448Z,30.30
2019-01-23T11:21:25.862Z,30.20
2019-01-23T11:22:25.338Z,31.20
2019-01-23T11:23:25.867Z,29.30
2019-01-23T11:24:25.491Z,31.30
2019-01-23T11:25:25.449Z,30.60
2019-01-23T11:26:25.335Z,31.30
2019-01-23T11:27:25.223Z,29.90
2019-01-23T11:28:25.197Z,30.30
2019-01-23T11:29:25.206Z,29.90
2019-01-23T11:30:25.152Z,29.80
2019-01-23T11:31:25.140Z,31.20
2019-01-23T11:32:25.104Z,32.30
2019-01-23T11:33:25.084Z,30.60
2019-01-23T11:34:25.058Z,30.20
2019-01-23T11:35:25.059Z,29.40
2019-01-23T11:36:25.012Z,29.00
2019-01-23T11:37:25.001Z,29.10
2019-01-23T11:38:24.966Z,29.80
2019-01-23T11:39:24.974Z,28.90
2019-01-23T11:40:24.927Z,29.60
2019-01-23T11:41:24.898Z,29.10
2019-01-23T11:42:24.878Z,30.10
2019-01-23T11:43:24.848Z,28.90
2019-01-23T11:44:24.828Z,28.40
2019-01-23T11:45:24.839Z,29.20
2019-01-23T11:46:24.811Z,29.40
2019-01-23T11:47:24.761Z,28.60
2019-01-23T11:48:24.758Z,29.70
2019-01-23T11:49:24.714Z,28.70
2019-01-23T11:50:24.692Z,29.30
2019-01-23T11:51:24.674Z,28.90
2019-01-23T11:52:24.646Z,29.90
2019-01-23T11:53:24.639Z,29.90
2019-01-23T11:54:24.596Z,28.80
2019-01-23T11:55:24.575Z,29.50
2019-01-23T11:56:24.553Z,29.80
2019-01-23T11:57:24.539Z,28.20
2019-01-23T11:58:24.526Z,27.80
2019-01-23T11:59:24.513Z,29.10
2019-01-23T12:00:24.477Z,28.50
2019-01-23T12:01:27.695Z,28.70
2019-01-23T12:02:30.604Z,28.40
2019-01-23T12:03:24.393Z,28.10
2019-01-23T12:04:24.369Z,27.60
2019-01-23T12:05:24.356Z,28.20
2019-01-23T12:06:24.340Z,28.40
2019-01-23T12:07:24.298Z,28.80
2019-01-23T12:08:24.280Z,28.90
2019-01-23T12:09:24.260Z,28.40
2019-01-23T12:10:24.231Z,28.70
2019-01-23T12:11:24.216Z,29.50
2019-01-23T12:12:24.207Z,29.00
2019-01-23T12:13:24.169Z,29.00
2019-01-23T12:14:24.153Z,28.90
2019-01-23T12:15:24.121Z,27.80
2019-01-23T12:16:24.118Z,28.90
2019-01-23T12:17:24.077Z,29.10
2019-01-23T12:18:24.051Z,29.20
2019-01-23T12:19:24.029Z,28.30
2019-01-23T12:20:24.006Z,28.90
2019-01-23T12:21:24.010Z,28.80
2019-01-23T12:22:23.972Z,28.40
2019-01-23T12:23:23.979Z,28.40
2019-01-23T12:24:24.762Z,29.30
2019-01-23T12:25:23.893Z,28.80
2019-01-23T12:26:23.885Z,28.10
2019-01-23T12:27:23.848Z,28.50
2019-01-23T12:30:10.495Z,28.20
2019-01-23T12:31:10.267Z,27.70
2019-01-23T12:32:10.224Z,28.30
2019-01-23T12:33:10.199Z,28.60
2019-01-23T12:34:10.200Z,28.40
2019-01-23T12:35:10.156Z,28.30
2019-01-23T12:36:10.129Z,30.00
2019-01-23T12:37:10.125Z,30.00
2019-01-23T12:38:10.093Z,29.00
2019-01-23T12:39:10.065Z,28.60
2019-01-23T12:40:10.068Z,29.60
2019-01-23T12:41:10.034Z,29.20
2019-01-23T12:42:09.997Z,28.70
2019-01-23T12:43:09.989Z,29.00
2019-01-23T12:44:09.949Z,29.10
2019-01-23T12:45:09.949Z,28.50
2019-01-23T12:46:09.933Z,28.80
2019-01-23T12:47:09.887Z,27.70
2019-01-23T12:48:09.863Z,28.50
2019-01-23T12:49:09.846Z,29.10
2019-01-23T12:50:09.815Z,29.10
2019-01-23T12:51:09.795Z,29.50
2019-01-23T12:52:09.808Z,28.80
2019-01-23T12:53:09.751Z,29.40
2019-01-23T12:54:09.733Z,28.80
2019-01-23T12:55:09.707Z,28.90
2019-01-23T12:56:09.697Z,29.30
2019-01-23T12:57:09.670Z,29.20